createdAt,value
2019-01-10T00:02:35.487Z,6.93
2019-01-10T00:05:17.304Z,7.47
2019-01-10T00:07:59.090Z,8.17
2019-01-10T00:10:40.964Z,5.40
2019-01-10T00:13:23.121Z,6.67
2019-01-10T00:15:52.715Z,8.23
2019-01-10T00:18:34.216Z,6.57
2019-01-10T00:21:16.762Z,8.43
2019-01-10T00:23:56.824Z,7.70
2019-01-10T00:26:45.953Z,6.03
2019-01-10T00:29:27.482Z,6.50
2019-01-10T00:32:09.118Z,6.57
2019-01-10T00:34:50.782Z,7.60
2019-01-10T00:37:32.504Z,6.20
2019-01-10T00:40:14.582Z,5.63
2019-01-10T00:42:56.576Z,6.30
2019-01-10T00:45:38.341Z,5.40
2019-01-10T00:48:20.594Z,5.80
2019-01-10T00:51:02.345Z,5.90
2019-01-10T00:53:44.116Z,6.57
2019-01-10T00:56:26.349Z,5.90
2019-01-10T00:59:08.370Z,6.13
2019-01-10T01:01:37.982Z,6.23
2019-01-10T01:04:27.105Z,6.27
2019-01-10T01:07:09.206Z,6.67
2019-01-10T01:09:50.973Z,6.43
2019-01-10T01:12:32.970Z,6.00
2019-01-10T01:15:16.429Z,5.67
2019-01-10T01:20:27.304Z,6.07
2019-01-10T01:23:16.310Z,5.27
2019-01-10T01:25:58.028Z,6.30
2019-01-10T01:28:28.427Z,6.27
2019-01-10T01:31:17.396Z,5.33
2019-01-10T01:33:46.985Z,6.07
2019-01-10T01:36:16.725Z,6.47
2019-01-10T01:39:00.051Z,6.57
2019-01-10T01:41:41.991Z,8.33
2019-01-10T01:44:23.561Z,7.27
2019-01-10T01:47:05.143Z,7.10
2019-01-10T01:49:47.420Z,8.50
2019-01-10T01:52:29.176Z,6.37
2019-01-10T01:55:11.236Z,7.47
2019-01-10T01:57:52.631Z,8.63
2019-01-10T02:00:34.058Z,6.83
2019-01-10T02:03:16.272Z,6.53
2019-01-10T02:05:57.731Z,10.20
2019-01-10T02:08:39.607Z,6.93
2019-01-10T02:11:21.880Z,6.47
2019-01-10T02:14:03.753Z,7.63
2019-01-10T02:16:46.004Z,6.70
2019-01-10T02:19:28.037Z,7.37
2019-01-10T02:22:10.116Z,6.93
2019-01-10T02:24:52.161Z,8.77
2019-01-10T02:27:34.100Z,6.57
2019-01-10T02:30:16.208Z,7.93
2019-01-10T02:32:59.060Z,8.00
2019-01-10T02:35:41.877Z,6.70
2019-01-10T02:38:24.725Z,9.73
2019-01-10T02:41:06.399Z,7.47
2019-01-10T02:46:48.241Z,6.90
2019-01-10T02:49:17.959Z,6.90
2019-01-10T02:51:47.596Z,7.27
2019-01-10T02:54:17.284Z,6.80
2019-01-10T02:56:47.012Z,6.93
2019-01-10T02:59:17.406Z,7.63
2019-01-10T03:01:47.424Z,6.40
2019-01-10T03:04:17.360Z,7.93
2019-01-10T03:06:46.997Z,7.20
2019-01-10T03:09:16.759Z,6.83
2019-01-10T03:11:46.375Z,7.93
2019-01-10T03:14:16.265Z,7.23
2019-01-10T03:16:45.893Z,7.00
2019-01-10T03:19:15.498Z,6.77
2019-01-10T03:21:45.104Z,7.90
2019-01-10T03:24:32.563Z,6.50
2019-01-10T03:27:03.170Z,6.57
2019-01-10T03:29:39.195Z,6.40
2019-01-10T03:32:26.497Z,6.77
2019-01-10T03:34:57.691Z,6.50
2019-01-10T03:37:27.507Z,6.80
2019-01-10T03:39:57.298Z,6.63
2019-01-10T03:42:26.995Z,8.07
2019-01-10T03:44:57.787Z,7.27
2019-01-10T03:47:28.397Z,7.30
2019-01-10T03:49:58.001Z,6.93
2019-01-10T03:52:28.877Z,7.07
2019-01-10T03:54:59.681Z,7.43
2019-01-10T03:57:29.964Z,6.90
2019-01-10T03:59:59.826Z,6.17
2019-01-10T04:02:38.322Z,7.40
2019-01-10T04:05:16.918Z,7.20
2019-01-10T04:08:04.438Z,8.27
2019-01-10T04:10:35.765Z,8.60
2019-01-10T04:13:08.088Z,7.40
2019-01-10T04:15:38.040Z,6.20
2019-01-10T04:18:07.664Z,9.20
2019-01-10T04:20:37.260Z,6.33
2019-01-10T04:23:07.046Z,6.87
2019-01-10T04:25:39.407Z,7.53
2019-01-10T04:28:09.226Z,6.50
2019-01-10T04:30:38.922Z,5.70
2019-01-10T04:33:08.736Z,7.00
2019-01-10T04:35:38.429Z,6.97
2019-01-10T04:38:08.070Z,6.33
2019-01-10T04:40:37.756Z,7.00
2019-01-10T04:43:07.470Z,6.10
2019-01-10T04:45:38.266Z,5.53
2019-01-10T04:48:07.896Z,6.10
2019-01-10T04:50:37.765Z,6.00
2019-01-10T04:53:08.698Z,7.67
2019-01-10T04:55:38.359Z,6.10
2019-01-10T04:58:08.276Z,6.17
2019-01-10T05:00:37.977Z,6.07
2019-01-10T05:03:07.742Z,5.40
2019-01-10T05:05:37.477Z,11.03
2019-01-10T05:08:07.102Z,12.67
2019-01-10T05:10:36.693Z,8.87
2019-01-10T05:13:06.413Z,6.93
2019-01-10T05:15:36.109Z,5.40
2019-01-10T05:18:08.097Z,6.17
2019-01-10T05:20:37.222Z,5.97
2019-01-10T05:23:06.849Z,5.40
2019-01-10T05:25:36.736Z,5.53
2019-01-10T05:28:08.369Z,5.70
2019-01-10T05:30:38.165Z,5.20
2019-01-10T05:33:07.790Z,6.20
2019-01-10T05:35:37.390Z,7.40
2019-01-10T05:38:07.044Z,5.90
2019-01-10T05:40:36.698Z,6.33
2019-01-10T05:43:06.447Z,7.20
2019-01-10T05:45:36.890Z,6.53
2019-01-10T05:48:07.102Z,7.00
2019-01-10T05:50:36.729Z,6.00
2019-01-10T05:53:06.558Z,5.80
2019-01-10T05:55:36.849Z,5.80
2019-01-10T05:58:06.465Z,6.07
2019-01-10T06:00:36.962Z,5.67
2019-01-10T06:03:06.588Z,5.63
2019-01-10T06:05:36.444Z,6.07
2019-01-10T06:08:06.139Z,6.43
2019-01-10T06:10:36.245Z,5.33
2019-01-10T06:13:06.394Z,5.40
2019-01-10T06:15:36.139Z,5.73
2019-01-10T06:18:05.762Z,5.40
2019-01-10T06:20:35.353Z,6.07
2019-01-10T06:23:05.490Z,7.00
2019-01-10T06:25:36.635Z,6.80
2019-01-10T06:28:06.315Z,5.30
2019-01-10T06:30:41.916Z,6.50
2019-01-10T06:33:11.645Z,5.77
2019-01-10T06:35:41.330Z,5.80
2019-01-10T06:38:12.093Z,6.60
2019-01-10T06:40:41.698Z,6.10
2019-01-10T06:43:11.816Z,6.27
2019-01-10T06:45:43.469Z,5.83
2019-01-10T06:48:13.099Z,5.97
2019-01-10T06:50:42.701Z,5.90
2019-01-10T06:53:12.395Z,5.87
2019-01-10T06:55:42.647Z,5.60
2019-01-10T06:58:12.216Z,5.17
2019-01-10T07:00:41.818Z,5.20
2019-01-10T07:03:11.441Z,5.87
2019-01-10T07:05:41.046Z,5.47
2019-01-10T07:08:10.670Z,6.00
2019-01-10T07:10:40.266Z,5.87
2019-01-10T07:13:09.889Z,5.90
2019-01-10T07:15:39.909Z,6.43
2019-01-10T07:18:09.614Z,5.50
2019-01-10T07:20:39.875Z,5.83
2019-01-10T07:23:09.509Z,5.50
2019-01-10T07:25:39.310Z,6.10
2019-01-10T07:28:24.511Z,5.90
2019-01-10T07:30:55.142Z,6.60
2019-01-10T07:33:24.811Z,5.80
2019-01-10T07:35:55.535Z,6.30
2019-01-10T07:38:25.317Z,8.03
2019-01-10T07:40:54.979Z,6.20
2019-01-10T07:43:24.599Z,5.50
2019-01-10T07:45:54.557Z,7.33
2019-01-10T07:48:24.430Z,5.60
2019-01-10T07:50:54.140Z,5.97
2019-01-10T07:53:23.753Z,4.80
2019-01-10T07:55:53.465Z,4.90
2019-01-10T07:58:23.318Z,5.00
2019-01-10T08:00:54.008Z,5.73
2019-01-10T08:03:23.642Z,5.67
2019-01-10T08:05:53.252Z,5.20
2019-01-10T08:08:22.878Z,5.43
2019-01-10T08:10:52.612Z,6.10
2019-01-10T08:13:22.153Z,5.50
2019-01-10T08:15:51.775Z,5.83
2019-01-10T08:18:21.670Z,6.63
2019-01-10T08:20:51.299Z,5.97
2019-01-10T08:23:20.893Z,5.90
2019-01-10T08:25:50.714Z,4.80
2019-01-10T08:28:20.301Z,7.47
2019-01-10T08:30:50.246Z,6.08
2019-01-10T08:33:19.794Z,6.97
2019-01-10T08:35:49.490Z,7.53
2019-01-10T08:38:19.187Z,7.17
2019-01-10T08:40:48.868Z,6.63
2019-01-10T08:43:18.465Z,7.10
2019-01-10T08:45:48.090Z,6.80
2019-01-10T08:48:37.023Z,6.80
2019-01-10T08:51:19.150Z,6.57
2019-01-10T08:54:01.277Z,6.00
2019-01-10T08:56:42.797Z,5.87
2019-01-10T08:59:24.538Z,6.83
2019-01-10T09:02:06.287Z,6.90
2019-01-10T09:04:47.929Z,6.73
2019-01-10T09:07:29.347Z,7.30
2019-01-10T09:10:11.312Z,6.70
2019-01-10T09:12:52.666Z,6.20
2019-01-10T09:15:34.927Z,6.50
2019-01-10T09:18:17.103Z,6.30
2019-01-10T09:21:04.106Z,6.53
2019-01-10T09:23:40.784Z,6.23
2019-01-10T09:26:37.616Z,6.37
2019-01-10T09:29:18.249Z,6.83
2019-01-10T09:31:59.963Z,5.90
2019-01-10T09:34:42.170Z,6.00
2019-01-10T09:37:24.193Z,5.73
2019-01-10T09:40:06.314Z,7.73
2019-01-10T09:42:48.344Z,6.40
2019-01-10T09:45:32.089Z,5.73
2019-01-10T09:48:14.295Z,6.80
2019-01-10T09:50:56.330Z,5.13
2019-01-10T09:53:38.361Z,5.40
2019-01-10T09:56:20.325Z,5.47
2019-01-10T09:59:02.353Z,4.67
2019-01-10T10:01:44.404Z,5.40
2019-01-10T10:04:26.291Z,5.47
2019-01-10T10:07:08.307Z,4.97
2019-01-10T10:09:51.077Z,5.42
2019-01-10T10:12:32.902Z,5.53
2019-01-10T10:15:15.230Z,5.30
2019-01-10T10:17:57.232Z,5.33
2019-01-10T10:20:40.155Z,5.60
2019-01-10T10:23:26.829Z,4.72
2019-01-10T10:26:06.081Z,4.43
2019-01-10T10:28:48.343Z,4.33
2019-01-10T10:31:29.692Z,5.30
2019-01-10T10:34:11.621Z,4.80
2019-01-10T10:36:53.695Z,4.70
2019-01-10T10:39:35.814Z,4.50
2019-01-10T10:42:17.785Z,4.80
2019-01-10T10:44:59.787Z,4.77
2019-01-10T10:47:41.314Z,4.83
2019-01-10T10:50:23.188Z,4.90
2019-01-10T10:53:05.432Z,4.87
2019-01-10T10:55:47.093Z,5.13
2019-01-10T10:58:28.995Z,5.10
2019-01-10T11:01:10.724Z,4.63
2019-01-10T11:03:52.915Z,9.93
2019-01-10T11:06:34.657Z,14.40
2019-01-10T11:09:16.922Z,14.10
2019-01-10T11:11:58.909Z,22.90
2019-01-10T11:14:40.313Z,10.13
2019-01-10T11:17:22.160Z,7.30
2019-01-10T11:20:03.778Z,5.13
2019-01-10T11:22:45.939Z,5.50
2019-01-10T11:25:28.297Z,5.87
2019-01-10T11:28:10.539Z,6.73
2019-01-10T11:30:52.490Z,4.93
2019-01-10T11:33:34.202Z,5.00
2019-01-10T11:36:17.161Z,4.50
2019-01-10T11:38:59.134Z,4.23
2019-01-10T11:41:41.545Z,4.33
2019-01-10T11:44:23.510Z,5.37
2019-01-10T11:47:05.502Z,4.60
2019-01-10T11:49:47.459Z,5.30
2019-01-10T11:52:29.203Z,5.50
2019-01-10T11:55:11.131Z,5.00
2019-01-10T11:57:53.486Z,5.03
2019-01-10T12:00:35.020Z,4.77
2019-01-10T12:03:16.606Z,4.10
2019-01-10T12:05:58.439Z,4.23
2019-01-10T12:08:40.582Z,4.27
2019-01-10T12:11:22.529Z,4.50
2019-01-10T12:14:04.194Z,3.90
2019-01-10T12:16:47.934Z,4.17
2019-01-10T12:19:29.789Z,3.97
2019-01-10T12:22:12.061Z,5.10
2019-01-10T12:24:54.127Z,4.70
2019-01-10T12:27:36.345Z,3.85
2019-01-10T12:30:18.256Z,4.20
2019-01-10T12:33:01.078Z,4.83
2019-01-10T12:35:42.835Z,4.43
2019-01-10T12:38:24.947Z,4.77
2019-01-10T12:41:07.018Z,4.70
2019-01-10T12:43:49.230Z,5.03
2019-01-10T12:46:37.391Z,5.53
2019-01-10T12:49:14.692Z,4.23
2019-01-10T12:51:56.875Z,4.87
2019-01-10T12:54:38.895Z,4.07
2019-01-10T12:57:20.588Z,4.20
2019-01-10T13:00:02.838Z,4.67
2019-01-10T13:02:44.787Z,5.23
2019-01-10T13:05:26.513Z,5.13
2019-01-10T13:08:07.995Z,5.47
2019-01-10T13:10:50.713Z,4.40
2019-01-10T13:13:34.168Z,5.27
2019-01-10T13:16:15.939Z,10.03
2019-01-10T13:18:58.521Z,7.80
2019-01-10T13:21:40.617Z,6.87
2019-01-10T13:24:22.390Z,6.37
2019-01-10T13:27:06.339Z,6.73
2019-01-10T13:29:48.292Z,80.43
2019-01-10T13:32:30.323Z,13.20
2019-01-10T13:35:12.231Z,6.30
2019-01-10T13:37:53.850Z,15.07
2019-01-10T13:40:36.046Z,32.73
2019-01-10T13:43:18.137Z,24.00
2019-01-10T13:45:59.766Z,5.10
2019-01-10T13:48:41.427Z,5.90
2019-01-10T13:51:23.294Z,4.20
2019-01-10T13:54:05.611Z,4.27
2019-01-10T13:56:48.377Z,4.78
2019-01-10T13:59:28.318Z,5.80
2019-01-10T14:02:17.927Z,16.87
2019-01-10T14:05:00.095Z,42.30
2019-01-10T14:07:42.304Z,35.40
2019-01-10T14:10:24.545Z,9.10
2019-01-10T14:13:06.405Z,8.90
2019-01-10T14:15:47.834Z,61.10
2019-01-10T14:18:29.783Z,83.20
2019-01-10T14:21:11.299Z,38.13
2019-01-10T14:23:52.849Z,12.40
2019-01-10T14:26:34.943Z,17.40
2019-01-10T14:29:16.957Z,25.37
2019-01-10T14:31:58.786Z,49.93
2019-01-10T14:34:40.628Z,22.07
2019-01-10T14:37:22.280Z,6.60
2019-01-10T14:40:04.525Z,34.40
2019-01-10T14:42:46.277Z,13.93
2019-01-10T14:45:28.368Z,6.67
2019-01-10T14:48:12.567Z,8.87
2019-01-10T14:50:54.289Z,7.03
2019-01-10T14:53:37.370Z,15.93
2019-01-10T14:56:19.540Z,9.27
2019-01-10T15:01:45.869Z,15.00
2019-01-10T15:04:15.745Z,13.20
2019-01-10T15:06:45.729Z,14.37
2019-01-10T15:09:15.642Z,9.00
2019-01-10T15:11:45.245Z,17.03
2019-01-10T15:14:16.293Z,9.97
2019-01-10T15:16:46.579Z,9.47
2019-01-10T15:19:16.530Z,8.43
2019-01-10T15:21:46.421Z,5.23
2019-01-10T15:24:16.384Z,6.13
2019-01-10T15:26:46.155Z,7.17
2019-01-10T15:29:15.749Z,7.17
2019-01-10T15:31:45.375Z,5.40
2019-01-10T15:34:15.072Z,5.87
2019-01-10T15:36:44.657Z,4.53
2019-01-10T15:39:14.531Z,4.43
2019-01-10T15:41:44.724Z,4.87
2019-01-10T15:44:14.721Z,6.00
2019-01-10T15:46:44.441Z,6.23
2019-01-10T15:49:14.137Z,4.33
2019-01-10T15:51:43.978Z,17.03
2019-01-10T15:54:17.735Z,21.50
2019-01-10T15:56:47.352Z,13.67
2019-01-10T15:59:16.953Z,25.07
2019-01-10T16:01:46.654Z,26.57
2019-01-10T16:04:16.257Z,17.67
2019-01-10T16:06:46.017Z,11.53
2019-01-10T16:09:15.653Z,8.13
2019-01-10T16:11:45.868Z,7.07
2019-01-10T16:14:15.478Z,5.97
2019-01-10T16:16:45.084Z,4.83
2019-01-10T16:19:14.690Z,5.10
2019-01-10T16:21:44.331Z,4.20
2019-01-10T16:24:13.942Z,4.17
2019-01-10T16:26:43.562Z,4.00
2019-01-10T16:29:13.150Z,4.57
2019-01-10T16:31:42.949Z,4.83
2019-01-10T16:34:12.553Z,4.83
2019-01-10T16:36:42.203Z,4.60
2019-01-10T16:39:11.892Z,5.53
2019-01-10T16:41:52.353Z,5.00
2019-01-10T16:44:22.345Z,8.27
2019-01-10T16:46:52.119Z,47.10
2019-01-10T16:49:21.700Z,9.33
2019-01-10T16:51:51.627Z,6.37
2019-01-10T16:54:24.370Z,7.80
2019-01-10T16:56:54.042Z,8.90
2019-01-10T16:59:23.653Z,8.00
2019-01-10T17:01:53.260Z,7.00
2019-01-10T17:04:23.262Z,7.57
2019-01-10T17:06:52.891Z,7.20
2019-01-10T17:09:22.587Z,9.13
2019-01-10T17:11:52.213Z,7.70
2019-01-10T17:14:22.744Z,15.97
2019-01-10T17:16:53.249Z,13.43
2019-01-10T17:19:22.869Z,16.13
2019-01-10T17:21:52.605Z,12.67
2019-01-10T17:24:22.686Z,8.93
2019-01-10T17:26:52.391Z,22.20
2019-01-10T17:29:22.088Z,23.10
2019-01-10T17:31:51.720Z,7.67
2019-01-10T17:34:21.498Z,23.40
2019-01-10T17:36:52.715Z,6.47
2019-01-10T17:39:22.305Z,10.30
2019-01-10T17:41:52.125Z,6.83
2019-01-10T17:44:21.741Z,7.57
2019-01-10T17:46:51.518Z,8.40
2019-01-10T17:49:21.109Z,5.97
2019-01-10T17:51:50.729Z,6.57
2019-01-10T17:54:20.396Z,6.80
2019-01-10T17:56:50.025Z,7.07
2019-01-10T17:59:20.205Z,5.20
2019-01-10T18:01:49.825Z,4.77
2019-01-10T18:04:19.537Z,4.50
2019-01-10T18:06:50.346Z,5.30
2019-01-10T18:09:19.947Z,6.67
2019-01-10T18:11:49.569Z,5.90
2019-01-10T18:14:19.165Z,13.80
2019-01-10T18:16:48.785Z,5.10
2019-01-10T18:19:18.377Z,4.00
2019-01-10T18:21:48.315Z,4.10
2019-01-10T18:24:18.831Z,4.10
2019-01-10T18:26:55.649Z,4.47
2019-01-10T18:29:20.381Z,4.53
2019-01-10T18:31:50.044Z,4.17
2019-01-10T18:34:19.705Z,4.60
2019-01-10T18:36:49.329Z,4.63
2019-01-10T18:39:18.915Z,4.70
2019-01-10T18:41:49.170Z,6.07
2019-01-10T18:44:19.144Z,5.53
2019-01-10T18:46:48.757Z,5.97
2019-01-10T18:49:18.582Z,5.90
2019-01-10T18:51:48.169Z,8.17
2019-01-10T18:54:17.878Z,7.10
2019-01-10T18:56:47.579Z,9.53
2019-01-10T18:59:17.188Z,6.80
2019-01-10T19:01:46.989Z,5.47
2019-01-10T19:04:16.813Z,11.43
2019-01-10T19:06:46.416Z,18.63
2019-01-10T19:09:16.849Z,12.63
2019-01-10T19:11:46.458Z,7.67
2019-01-10T19:14:16.072Z,5.93
2019-01-10T19:16:45.665Z,7.80
2019-01-10T19:19:15.276Z,5.57
2019-01-10T19:21:45.169Z,5.00
2019-01-10T19:24:14.795Z,8.87
2019-01-10T19:26:44.460Z,8.67
2019-01-10T19:29:14.073Z,8.60
2019-01-10T19:31:43.670Z,8.87
2019-01-10T19:34:13.282Z,12.10
2019-01-10T19:36:43.400Z,5.70
2019-01-10T19:39:14.063Z,4.83
2019-01-10T19:41:43.731Z,5.13
2019-01-10T19:44:13.401Z,5.23
2019-01-10T19:46:43.087Z,5.10
2019-01-10T19:49:13.712Z,4.80
2019-01-10T19:51:43.310Z,5.17
2019-01-10T19:54:13.010Z,13.67
2019-01-10T19:56:42.616Z,5.83
2019-01-10T19:59:12.238Z,6.43
2019-01-10T20:01:42.116Z,11.03
2019-01-10T20:04:11.724Z,8.47
2019-01-10T20:06:41.334Z,7.83
2019-01-10T20:09:11.016Z,8.47
2019-01-10T20:11:40.681Z,7.33
2019-01-10T20:14:10.386Z,6.07
2019-01-10T20:16:39.974Z,6.67
2019-01-10T20:19:11.672Z,8.33
2019-01-10T20:21:41.462Z,9.87
2019-01-10T20:24:11.087Z,9.60
2019-01-10T20:26:40.680Z,8.80
2019-01-10T20:29:10.301Z,6.77
2019-01-10T20:31:40.423Z,8.13
2019-01-10T20:34:10.040Z,6.80
2019-01-10T20:36:39.865Z,7.77
2019-01-10T20:39:10.057Z,10.40
2019-01-10T20:41:39.762Z,10.47
2019-01-10T20:44:09.384Z,13.17
2019-01-10T20:46:38.990Z,8.77
2019-01-10T20:49:08.626Z,8.63
2019-01-10T20:51:38.217Z,6.97
2019-01-10T20:54:07.982Z,6.80
2019-01-10T20:56:37.647Z,6.97
2019-01-10T20:59:07.740Z,10.73
2019-01-10T21:01:37.453Z,10.93
2019-01-10T21:04:07.308Z,10.77
2019-01-10T21:06:37.124Z,9.93
2019-01-10T21:09:12.992Z,9.50
2019-01-10T21:11:39.599Z,8.50
2019-01-10T21:14:09.225Z,9.60
2019-01-10T21:16:38.913Z,8.90
2019-01-10T21:19:08.746Z,11.80
2019-01-10T21:21:38.420Z,12.33
2019-01-10T21:24:08.186Z,11.40
2019-01-10T21:26:37.784Z,12.40
2019-01-10T21:29:07.398Z,12.30
2019-01-10T21:31:37.001Z,11.13
2019-01-10T21:34:06.784Z,10.90
2019-01-10T21:36:36.388Z,11.73
2019-01-10T21:39:06.660Z,13.47
2019-01-10T21:41:36.366Z,11.30
2019-01-10T21:44:06.121Z,10.03
2019-01-10T21:46:36.319Z,12.93
2019-01-10T21:49:05.923Z,13.17
2019-01-10T21:51:35.612Z,13.10
2019-01-10T21:54:07.155Z,17.53
2019-01-10T21:56:36.940Z,22.33
2019-01-10T21:59:06.547Z,27.80
2019-01-10T22:01:36.242Z,19.67
2019-01-10T22:04:06.017Z,25.23
2019-01-10T22:06:35.711Z,16.97
2019-01-10T22:09:07.058Z,15.10
2019-01-10T22:11:36.686Z,13.20
2019-01-10T22:14:06.373Z,16.00
2019-01-10T22:16:36.196Z,20.27
2019-01-10T22:19:05.963Z,19.57
2019-01-10T22:21:35.781Z,20.57
2019-01-10T22:24:06.248Z,25.07
2019-01-10T22:26:35.881Z,31.47
2019-01-10T22:29:05.564Z,29.93
2019-01-10T22:31:35.181Z,24.30
2019-01-10T22:34:05.030Z,23.80
2019-01-10T22:36:34.666Z,25.97
2019-01-10T22:39:06.978Z,22.53
2019-01-10T22:41:36.818Z,21.13
2019-01-10T22:44:06.485Z,23.50
2019-01-10T22:46:36.219Z,33.17
2019-01-10T22:49:06.426Z,25.27
2019-01-10T22:51:36.053Z,24.00
2019-01-10T22:54:05.798Z,19.80
2019-01-10T22:56:35.527Z,22.90
2019-01-10T22:59:05.172Z,19.67
2019-01-10T23:01:37.440Z,15.53
2019-01-10T23:04:07.290Z,13.73
2019-01-10T23:06:37.062Z,14.70
2019-01-10T23:09:08.073Z,17.30
2019-01-10T23:11:37.856Z,15.73
2019-01-10T23:14:07.648Z,31.90
2019-01-10T23:16:37.425Z,34.17
2019-01-10T23:19:07.364Z,17.00
2019-01-10T23:21:37.137Z,18.97
2019-01-10T23:24:07.375Z,17.63
2019-01-10T23:26:37.244Z,20.60
2019-01-10T23:29:06.913Z,21.93
2019-01-10T23:31:36.619Z,18.00
2019-01-10T23:34:07.725Z,19.50
2019-01-10T23:36:37.601Z,19.60
2019-01-10T23:39:16.309Z,21.67
2019-01-10T23:41:46.519Z,24.47
2019-01-10T23:44:16.194Z,23.53
2019-01-10T23:46:45.893Z,26.43
2019-01-10T23:49:15.762Z,25.93
2019-01-10T23:51:46.287Z,24.10
2019-01-10T23:54:15.960Z,23.27
2019-01-10T23:56:45.705Z,22.40
2019-01-10T23:59:15.646Z,19.23
